This demonstration page uses our WeatherBlox Daily Observations layout. Learn more.

39.01783, -85.05884

Hourly Observations for January 14, 2021

Temp ( °F °C ) Dew Point ( °F °C ) Humidity (%) Winds ( mph kmh ) Pressure ( in mb ) Visibility ( mi km ) Precip ( " mm )
12:52 am 00:52 Cloudy 37 2.8 27 -2.8 67 67 S 7 11 29.83 1010 10 16.0934 0 0
1:52 am 01:52 Cloudy 35 1.7 26 -3.3 70 70 S 6 9 29.82 1010 10 16.0934 0 0
2:52 am 02:52 Mostly Cloudy 32 0 25 -3.9 75 75 S 7 11 29.81 1010 10 16.0934 0 0
3:52 am 03:52 Partly Cloudy 31 -0.6 25 -3.9 79 79 S 7 11 29.8 1009 9 14.48406 0 0
4:52 am 04:52 Partly Cloudy 31 -0.6 25 -3.9 79 79 S 7 11 29.79 1009 9 14.48406 0 0
5:52 am 05:52 Mostly Clear 30 -1.1 25 -3.9 82 82 S 10 17 29.8 1009 9 14.48406 0 0
6:52 am 06:52 Mostly Cloudy 31 -0.6 26 -3.3 82 82 S 10 17 29.79 1009 9 14.48406 0 0
7:52 am 07:52 Partly Cloudy 31 -0.6 26 -3.3 82 82 S 12 19 29.79 1009 8 12.87472 0 0
8:52 am 08:52 Partly Cloudy 33 0.6 28 -2.2 82 82 S 10 17 29.78 1009 9 14.48406 0 0
9:52 am 09:52 Mostly Cloudy 36 2.2 29 -1.7 76 76 S 13 20 29.8 1009 10 16.0934 0 0
10:52 am 10:52 Mostly Cloudy 39 3.9 31 -0.6 73 73 S 12 19 29.78 1008 10 16.0934 0 0
11:52 am 11:52 Cloudy 41 5 31 -0.6 67 67 S 12 19 29.73 1007 9 14.48406 0 0
1:52 pm 13:52 Mostly Cloudy 47 8.3 33 0.6 59 59 S 14 22 29.66 1004 10 16.0934 0 0
2:52 pm 14:52 Cloudy 48 8.9 33 0.6 56 56 SSE 14 22 29.64 1004 10 16.0934 0 0
3:52 pm 15:52 Cloudy 50 10 33 0.6 52 52 SSE 14 22 29.61 1003 10 16.0934 0 0
4:52 pm 16:52 Cloudy 50 10 32 0 50 50 S 16 26 29.62 1003 10 16.0934 0 0
5:52 pm 17:52 Partly Cloudy 43 6.1 32 0 65 65 SSE 9 15 29.61 1003 10 16.0934 0 0
6:52 pm 18:52 Mostly Cloudy 42 5.6 32 0 68 68 SSE 8 13 29.61 1003 10 16.0934 0 0
7:52 pm 19:52 Cloudy 43 6.1 33 0.6 68 68 S 8 13 29.62 1003 10 16.0934 0 0
8:52 pm 20:52 Cloudy 45 7.2 33 0.6 63 63 S 10 17 29.61 1003 10 16.0934 0 0
9:52 pm 21:52 Cloudy 47 8.3 32 0 56 56 S 12 19 29.6 1002 10 16.0934 0 0
10:52 pm 22:52 Cloudy 47 8.3 32 0 56 56 S 13 20 29.58 1002 10 16.0934 0 0
11:52 pm 23:52 Cloudy 47 8.3 32 0 56 56 S 12 19 29.58 1002 10 16.0934 0 0

Powered by AerisWeather